Time;durP1;ratioP1;P1;durP2;ratioP2;P2;SDS_P1;SDS_P2;PMS_P1;PMS_P2;Temp;Humidity;BMP_temperature;BMP_pressure;BME280_temperature;BME280_humidity;BME280_pressure;Samples;Min_cycle;Max_cycle;Signal;HPM_P1;HPM_P2
2021/12/03 00:01:17;;;;;;;932.95;842.25;;;-0.50;99.90;;;;;;4861570;29;20460;-84
2021/12/03 00:03:44;;;;;;;929.97;839.20;;;-0.40;99.90;;;;;;4861478;29;20210;-84
2021/12/03 00:06:13;;;;;;;934.13;842.93;;;-0.40;99.90;;;;;;4861499;29;20223;-84
2021/12/03 00:08:40;;;;;;;931.53;841.90;;;-0.40;99.90;;;;;;4862279;29;20856;-83
2021/12/03 00:11:09;;;;;;;938.77;847.50;;;-0.50;99.90;;;;;;4862111;29;20471;-84
2021/12/03 00:13:37;;;;;;;954.13;863.55;;;-0.50;99.90;;;;;;4864131;29;20838;-84
2021/12/03 00:16:05;;;;;;;974.50;883.70;;;-0.60;99.90;;;;;;4864497;29;20206;-84
2021/12/03 00:18:32;;;;;;;985.37;893.17;;;-0.70;99.90;;;;;;4863576;29;20224;-84
2021/12/03 00:21:03;;;;;;;982.30;888.80;;;-0.60;99.90;;;;;;4861207;29;20467;-84
2021/12/03 00:23:31;;;;;;;955.03;864.57;;;-0.50;99.90;;;;;;4861485;29;20246;-84
2021/12/03 00:25:59;;;;;;;958.83;866.95;;;-0.30;99.90;;;;;;4861256;29;20484;-84
2021/12/03 00:28:26;;;;;;;958.60;868.40;;;-0.20;99.90;;;;;;4861360;29;20224;-84
2021/12/03 00:30:53;;;;;;;961.80;869.97;;;-0.30;99.90;;;;;;4862107;29;20464;-84
2021/12/03 00:33:21;;;;;;;974.87;881.87;;;-0.30;99.90;;;;;;4861915;29;20487;-84
2021/12/03 00:35:49;;;;;;;976.80;884.53;;;-0.30;99.90;;;;;;4861759;29;20456;-84
2021/12/03 00:38:16;;;;;;;981.07;887.23;;;-0.30;99.90;;;;;;4861165;29;20476;-84
2021/12/03 00:40:43;;;;;;;983.13;887.60;;;-0.40;99.90;;;;;;4860675;29;20464;-84
2021/12/03 00:43:11;;;;;;;969.77;876.30;;;-0.40;99.90;;;;;;4861008;29;20495;-84
2021/12/03 00:45:37;;;;;;;975.67;882.10;;;-0.40;99.90;;;;;;4860885;29;20495;-84
2021/12/03 00:48:05;;;;;;;992.93;897.83;;;-0.30;99.90;;;;;;4861242;29;20480;-84
2021/12/03 00:50:34;;;;;;;996.87;900.70;;;-0.20;99.90;;;;;;4861729;29;20468;-84
2021/12/03 00:53:01;;;;;;;996.67;901.03;;;-0.20;99.90;;;;;;4860893;29;20464;-84
2021/12/03 00:55:29;;;;;;;993.92;897.50;;;-0.10;99.90;;;;;;4860419;29;20196;-84
2021/12/03 00:57:56;;;;;;;978.67;883.80;;;0.00;99.90;;;;;;4860093;29;20230;-83
2021/12/03 01:00:25;;;;;;;986.40;891.43;;;0.00;99.90;;;;;;4861169;29;20457;-84
2021/12/03 01:02:54;;;;;;;993.50;898.17;;;0.10;99.90;;;;;;4860460;29;20471;-84
2021/12/03 01:05:21;;;;;;;979.20;885.23;;;0.00;99.90;;;;;;4861541;29;21016;-84
2021/12/03 01:07:49;;;;;;;984.80;889.93;;;0.00;99.90;;;;;;4860945;29;20495;-84
2021/12/03 01:10:17;;;;;;;995.40;900.53;;;-0.10;99.90;;;;;;4861269;29;20457;-84
2021/12/03 01:12:44;;;;;;;995.73;900.80;;;-0.20;99.90;;;;;;4860822;29;20461;-84
2021/12/03 01:15:18;;;;;;;1005.22;909.63;;;-0.30;99.90;;;;;;4860444;29;20457;-83
2021/12/03 01:17:45;;;;;;;1007.40;911.70;;;-0.40;99.90;;;;;;4860969;29;20716;-84
2021/12/03 01:20:13;;;;;;;1008.87;913.33;;;-0.40;99.90;;;;;;4862325;29;20468;-84
2021/12/03 01:22:42;;;;;;;1007.28;912.33;;;-0.40;99.90;;;;;;4860415;29;20460;-84
2021/12/03 01:25:13;;;;;;;1009.58;915.15;;;-0.40;99.90;;;;;;4860925;29;20215;-83
2021/12/03 01:27:40;;;;;;;1008.37;914.33;;;-0.60;99.90;;;;;;4860760;29;20227;-84
2021/12/03 01:30:10;;;;;;;1021.13;927.90;;;-0.60;99.90;;;;;;4861575;29;20492;-84
2021/12/03 01:32:38;;;;;;;999.38;904.83;;;-0.70;99.90;;;;;;4863469;29;20448;-84
2021/12/03 01:35:06;;;;;;;979.70;885.83;;;-0.50;99.90;;;;;;4864391;29;20199;-85
2021/12/03 01:37:33;;;;;;;985.47;890.28;;;-0.40;99.90;;;;;;4864264;29;20480;-84
2021/12/03 01:40:00;;;;;;;985.87;893.23;;;-0.40;99.90;;;;;;4864416;29;20204;-85
2021/12/03 01:42:28;;;;;;;1001.93;908.63;;;-0.30;99.90;;;;;;4864626;29;20457;-84
2021/12/03 01:44:55;;;;;;;1006.47;912.27;;;-0.30;99.90;;;;;;4864266;29;20464;-84
2021/12/03 01:47:21;;;;;;;1010.13;917.00;;;-0.30;99.90;;;;;;4864442;29;20491;-84
2021/12/03 01:49:48;;;;;;;997.37;905.17;;;-0.30;99.90;;;;;;4864184;29;20460;-84
2021/12/03 01:52:15;;;;;;;998.07;904.53;;;-0.40;99.90;;;;;;4863442;29;20460;-84
2021/12/03 01:54:42;;;;;;;998.00;904.60;;;-0.20;99.90;;;;;;4864042;29;20488;-86
2021/12/03 01:57:09;;;;;;;979.90;885.53;;;-0.20;99.90;;;;;;4864832;29;20480;-84
2021/12/03 01:59:37;;;;;;;962.03;868.23;;;0.10;99.90;;;;;;4863141;29;20464;-84
2021/12/03 02:02:04;;;;;;;954.30;858.90;;;0.30;99.90;;;;;;4863468;29;20472;-84
2021/12/03 02:04:31;;;;;;;945.43;851.10;;;0.40;99.90;;;;;;4865131;29;20464;-84
2021/12/03 02:06:58;;;;;;;949.07;852.60;;;0.60;99.90;;;;;;4865728;29;20496;-84
2021/12/03 02:09:25;;;;;;;933.47;840.30;;;0.60;99.90;;;;;;4865434;29;20460;-84
2021/12/03 02:11:52;;;;;;;936.17;842.87;;;0.60;99.90;;;;;;4864418;29;20466;-84
2021/12/03 02:14:18;;;;;;;929.40;837.53;;;0.80;99.90;;;;;;4864160;29;20464;-84
2021/12/03 02:16:46;;;;;;;936.63;842.23;;;0.80;99.90;;;;;;4862843;29;20461;-84
2021/12/03 02:19:14;;;;;;;934.40;839.93;;;0.90;99.90;;;;;;4863109;29;20464;-84
2021/12/03 02:21:42;;;;;;;926.43;832.73;;;1.00;99.90;;;;;;4862333;29;20467;-83
2021/12/03 02:24:09;;;;;;;920.10;826.53;;;0.90;99.90;;;;;;4862432;29;20460;-83
2021/12/03 02:26:36;;;;;;;903.07;808.43;;;1.00;99.90;;;;;;4862786;29;20624;-83
2021/12/03 02:29:04;;;;;;;914.27;819.33;;;1.00;99.90;;;;;;4862471;29;20961;-83
2021/12/03 02:31:31;;;;;;;902.37;808.00;;;1.10;99.90;;;;;;4862510;29;20487;-83
2021/12/03 02:33:57;;;;;;;912.83;817.83;;;1.10;99.90;;;;;;4863125;29;20461;-84
2021/12/03 02:36:24;;;;;;;912.37;817.43;;;1.20;99.90;;;;;;4862008;29;20461;-84
2021/12/03 02:38:53;;;;;;;906.37;812.00;;;1.10;99.90;;;;;;4862064;29;20485;-83
2021/12/03 02:41:20;;;;;;;896.80;802.87;;;1.20;99.90;;;;;;4862614;29;20460;-83
2021/12/03 02:43:47;;;;;;;903.17;809.10;;;1.10;99.90;;;;;;4861758;29;20471;-83
2021/12/03 02:46:13;;;;;;;900.27;806.60;;;1.20;99.90;;;;;;4861468;29;21013;-83
2021/12/03 02:48:41;;;;;;;912.83;817.53;;;1.20;99.90;;;;;;4862211;29;20488;-82
2021/12/03 02:51:09;;;;;;;905.83;811.93;;;1.20;99.90;;;;;;4862244;29;20460;-83
2021/12/03 02:53:37;;;;;;;889.30;795.60;;;1.30;99.90;;;;;;4862035;29;21011;-83
2021/12/03 02:56:06;;;;;;;874.97;781.87;;;1.40;99.90;;;;;;4861645;29;20460;-83
2021/12/03 02:58:33;;;;;;;893.77;800.60;;;1.40;99.90;;;;;;4861979;29;20500;-83
2021/12/03 03:01:01;;;;;;;889.67;795.63;;;1.50;99.90;;;;;;4862043;29;20818;-83
2021/12/03 03:03:28;;;;;;;898.47;806.83;;;1.60;99.90;;;;;;4862320;29;20464;-83
2021/12/03 03:05:56;;;;;;;877.60;786.30;;;1.60;99.90;;;;;;4861930;29;20533;-83
2021/12/03 03:08:23;;;;;;;876.57;784.90;;;1.60;99.90;;;;;;4861557;29;21010;-83
2021/12/03 03:10:50;;;;;;;871.33;778.47;;;1.70;99.90;;;;;;4861837;29;20471;-83
2021/12/03 03:13:18;;;;;;;860.27;769.17;;;1.70;99.90;;;;;;4861853;29;20831;-84
2021/12/03 03:15:45;;;;;;;847.47;757.30;;;1.70;99.90;;;;;;4862071;29;20464;-83
2021/12/03 03:18:15;;;;;;;857.03;767.23;;;1.70;99.90;;;;;;4861224;29;20514;-83
2021/12/03 03:20:44;;;;;;;880.73;789.20;;;1.70;99.90;;;;;;4861525;29;20471;-84
2021/12/03 03:23:13;;;;;;;877.87;787.07;;;1.80;99.90;;;;;;4861864;29;20471;-83
2021/12/03 03:25:41;;;;;;;870.07;778.83;;;1.70;99.90;;;;;;4861162;29;20540;-83
2021/12/03 03:28:08;;;;;;;873.80;783.10;;;1.70;99.90;;;;;;4862128;29;20512;-83
2021/12/03 03:30:37;;;;;;;868.97;779.20;;;1.70;99.90;;;;;;4861939;29;20467;-83
2021/12/03 03:33:04;;;;;;;869.90;778.80;;;1.70;99.90;;;;;;4862474;29;20490;-84
2021/12/03 03:35:32;;;;;;;868.17;778.07;;;1.70;99.90;;;;;;4861686;29;20457;-84
2021/12/03 03:37:59;;;;;;;862.97;774.57;;;1.80;99.90;;;;;;4860641;29;20485;-84
2021/12/03 03:40:26;;;;;;;874.23;783.73;;;1.90;99.90;;;;;;4860689;29;20463;-85
2021/12/03 03:42:53;;;;;;;870.67;781.43;;;1.80;99.90;;;;;;4861798;29;20487;-84
2021/12/03 03:45:26;;;;;;;858.37;770.43;;;1.90;99.90;;;;;;4861121;29;20467;-84
2021/12/03 03:47:55;;;;;;;856.63;768.90;;;1.90;99.90;;;;;;4862275;29;20491;-84
2021/12/03 03:50:23;;;;;;;866.63;778.57;;;1.80;99.90;;;;;;4860086;29;20477;-83
2021/12/03 03:52:53;;;;;;;864.80;778.20;;;1.90;99.90;;;;;;4859958;29;20464;-84
2021/12/03 03:55:21;;;;;;;841.10;754.60;;;2.00;99.90;;;;;;4859761;29;20666;-84
2021/12/03 03:57:49;;;;;;;846.33;759.13;;;2.00;99.90;;;;;;4860146;29;20504;-83
2021/12/03 04:00:18;;;;;;;834.33;748.93;;;2.00;99.90;;;;;;4860494;29;20846;-83
2021/12/03 04:02:46;;;;;;;832.47;746.17;;;2.10;99.90;;;;;;4860699;29;20836;-84
2021/12/03 04:05:14;;;;;;;864.87;778.47;;;2.10;99.90;;;;;;4859954;29;20465;-83
2021/12/03 04:07:42;;;;;;;854.07;770.10;;;2.10;99.90;;;;;;4860418;29;20864;-84
2021/12/03 04:10:10;;;;;;;862.90;776.60;;;2.20;99.90;;;;;;4860813;29;20471;-83
2021/12/03 04:12:38;;;;;;;864.60;778.40;;;2.20;99.90;;;;;;4861908;29;20467;-84
2021/12/03 04:15:06;;;;;;;862.93;778.23;;;2.10;99.90;;;;;;4861750;29;20461;-84
2021/12/03 04:17:32;;;;;;;864.60;780.00;;;2.20;99.90;;;;;;4861632;29;20503;-84
2021/12/03 04:19:59;;;;;;;856.60;773.00;;;2.30;99.90;;;;;;4861023;29;20472;-84
2021/12/03 04:22:27;;;;;;;831.80;751.27;;;2.30;99.90;;;;;;4861006;29;20464;-83
2021/12/03 04:24:56;;;;;;;835.83;756.00;;;2.40;99.90;;;;;;4862749;29;20969;-83
2021/12/03 04:27:23;;;;;;;830.47;753.23;;;2.40;99.90;;;;;;4860907;29;20515;-83
2021/12/03 04:29:49;;;;;;;823.03;747.40;;;2.50;99.90;;;;;;4860172;29;20464;-84
2021/12/03 04:32:17;;;;;;;831.90;756.00;;;2.50;99.90;;;;;;4862900;29;20475;-84
2021/12/03 04:34:44;;;;;;;818.87;745.50;;;2.50;99.90;;;;;;4861246;29;20547;-84
2021/12/03 04:37:11;;;;;;;825.63;751.03;;;2.40;99.90;;;;;;4860353;29;20488;-83
2021/12/03 04:39:39;;;;;;;808.23;736.00;;;2.50;99.90;;;;;;4861394;29;20460;-84
2021/12/03 04:42:06;;;;;;;813.37;741.43;;;2.50;99.90;;;;;;4863211;29;20456;-84
2021/12/03 04:44:35;;;;;;;805.10;732.80;;;2.50;99.90;;;;;;4859483;29;20468;-84
2021/12/03 04:47:02;;;;;;;813.83;743.07;;;2.50;99.90;;;;;;4860031;29;20867;-84
2021/12/03 04:49:30;;;;;;;810.63;738.53;;;2.50;99.90;;;;;;4860963;29;20463;-83
2021/12/03 04:51:57;;;;;;;802.40;732.97;;;2.50;99.90;;;;;;4859907;29;20475;-84
2021/12/03 04:54:24;;;;;;;794.80;726.23;;;2.50;99.90;;;;;;4859362;29;20461;-84
2021/12/03 04:56:52;;;;;;;788.40;720.83;;;2.50;99.90;;;;;;4859272;29;20463;-84
2021/12/03 04:59:19;;;;;;;809.13;741.17;;;2.50;99.90;;;;;;4860458;29;20472;-83
2021/12/03 05:01:45;;;;;;;801.73;732.97;;;2.50;99.90;;;;;;4861516;29;20977;-84
2021/12/03 05:04:12;;;;;;;793.77;727.83;;;2.50;99.90;;;;;;4859606;29;20464;-83
2021/12/03 05:06:56;;;;;;;777.90;714.57;;;2.50;99.90;;;;;;4860614;29;20511;-84
2021/12/03 05:09:24;;;;;;;783.93;720.80;;;2.50;99.90;;;;;;4868692;29;20492;-83
2021/12/03 05:11:52;;;;;;;777.23;713.27;;;2.50;99.90;;;;;;4864732;29;20961;-83
2021/12/03 05:14:19;;;;;;;771.43;710.17;;;2.40;99.90;;;;;;4862983;29;20473;-83
2021/12/03 05:16:48;;;;;;;783.90;720.03;;;2.50;99.90;;;;;;4866178;29;20467;-83
2021/12/03 05:19:15;;;;;;;765.20;700.70;;;2.40;99.90;;;;;;4865737;29;20468;-83
2021/12/03 05:21:42;;;;;;;759.87;698.23;;;2.50;99.90;;;;;;4868722;29;20962;-83
2021/12/03 05:24:09;;;;;;;774.23;711.67;;;2.40;99.90;;;;;;4869663;29;20468;-83
2021/12/03 05:26:36;;;;;;;771.33;709.53;;;2.50;99.90;;;;;;4866879;29;20484;-83
2021/12/03 05:29:05;;;;;;;785.23;722.77;;;2.50;99.90;;;;;;4867004;29;20672;-83
2021/12/03 05:31:32;;;;;;;785.23;723.47;;;2.50;99.90;;;;;;4862823;29;20464;-83
2021/12/03 05:33:59;;;;;;;780.40;719.10;;;2.50;99.90;;;;;;4862590;29;20863;-83
2021/12/03 05:36:26;;;;;;;776.13;714.73;;;2.60;99.90;;;;;;4863860;29;20464;-83
2021/12/03 05:38:53;;;;;;;779.20;718.53;;;2.60;99.90;;;;;;4866525;29;20985;-83
2021/12/03 05:41:20;;;;;;;787.37;727.13;;;2.60;99.90;;;;;;4862520;29;20481;-84
2021/12/03 05:43:46;;;;;;;777.83;718.10;;;2.60;99.90;;;;;;4862312;29;20467;-83
2021/12/03 05:46:15;;;;;;;791.40;732.70;;;2.60;99.90;;;;;;4862018;29;20832;-83
2021/12/03 05:48:42;;;;;;;782.13;723.63;;;2.70;99.90;;;;;;4863492;29;20480;-83
2021/12/03 05:51:10;;;;;;;779.80;722.30;;;2.60;99.90;;;;;;4864794;29;20468;-83
2021/12/03 05:53:37;;;;;;;773.17;716.90;;;2.70;99.90;;;;;;4864594;29;20464;-83
2021/12/03 05:56:04;;;;;;;783.67;727.17;;;2.70;99.90;;;;;;4862999;29;20471;-83
2021/12/03 05:58:31;;;;;;;777.93;720.87;;;2.70;99.90;;;;;;4864747;29;20490;-83
2021/12/03 06:00:58;;;;;;;778.30;722.47;;;2.70;99.90;;;;;;4864565;29;20468;-83
2021/12/03 06:03:26;;;;;;;778.33;722.70;;;2.70;99.90;;;;;;4862318;29;20464;-83
2021/12/03 06:05:53;;;;;;;782.03;726.17;;;2.80;99.90;;;;;;4862236;29;20469;-83
2021/12/03 06:08:20;;;;;;;779.43;723.73;;;2.70;99.90;;;;;;4862230;29;20520;-83
2021/12/03 06:10:46;;;;;;;776.77;721.47;;;2.80;99.90;;;;;;4861753;29;20947;-83
2021/12/03 06:13:13;;;;;;;773.37;718.63;;;2.80;99.90;;;;;;4861899;29;20844;-83
2021/12/03 06:15:40;;;;;;;775.30;720.77;;;2.70;99.90;;;;;;4861545;29;20472;-83
2021/12/03 06:18:07;;;;;;;779.43;724.00;;;2.70;99.90;;;;;;4863749;29;20994;-82
2021/12/03 06:20:35;;;;;;;778.57;724.73;;;2.80;99.90;;;;;;4861984;29;20471;-83
2021/12/03 06:23:01;;;;;;;772.70;719.17;;;2.80;99.90;;;;;;4866221;29;20461;-83
2021/12/03 06:25:28;;;;;;;778.60;725.40;;;2.80;99.90;;;;;;4864759;29;20471;-83
2021/12/03 06:27:57;;;;;;;790.40;737.70;;;2.80;99.90;;;;;;4863655;29;20492;-83
2021/12/03 06:30:24;;;;;;;781.23;729.50;;;2.80;99.90;;;;;;4862181;29;20496;-83
2021/12/03 06:32:51;;;;;;;779.13;726.53;;;2.80;99.90;;;;;;4865596;29;21017;-83
2021/12/03 06:35:19;;;;;;;786.83;735.43;;;2.80;99.90;;;;;;4866154;29;20989;-83
2021/12/03 06:37:48;;;;;;;775.77;723.90;;;2.80;99.90;;;;;;4863363;29;20533;-82
2021/12/03 06:40:18;;;;;;;766.90;716.70;;;2.90;99.90;;;;;;4862139;29;20460;-83
2021/12/03 06:42:46;;;;;;;767.40;718.30;;;2.90;99.90;;;;;;4862373;29;20464;-83
2021/12/03 06:45:13;;;;;;;772.70;723.10;;;2.90;99.90;;;;;;4861299;29;20468;-82
2021/12/03 06:47:41;;;;;;;761.70;713.90;;;3.00;99.90;;;;;;4861664;29;20492;-82
2021/12/03 06:50:10;;;;;;;752.80;706.80;;;3.00;99.90;;;;;;4862146;29;20468;-82
2021/12/03 06:52:40;;;;;;;715.87;674.10;;;3.00;99.90;;;;;;4863094;29;20839;-82
2021/12/03 06:55:11;;;;;;;715.80;673.80;;;2.90;99.90;;;;;;4862336;29;20524;-82
2021/12/03 06:57:38;;;;;;;691.03;652.30;;;3.00;99.90;;;;;;4861592;29;20476;-82
2021/12/03 07:00:06;;;;;;;690.27;651.80;;;3.00;99.90;;;;;;4862786;29;20479;-82
2021/12/03 07:02:32;;;;;;;682.77;644.67;;;3.00;99.90;;;;;;4861903;29;20464;-82
2021/12/03 07:05:00;;;;;;;674.40;637.70;;;2.90;99.90;;;;;;4862610;29;20497;-83
2021/12/03 07:07:26;;;;;;;641.87;609.37;;;3.00;99.90;;;;;;4862653;29;20503;-82
2021/12/03 07:09:53;;;;;;;631.07;600.17;;;3.00;99.90;;;;;;4863263;29;20471;-82
2021/12/03 07:12:21;;;;;;;608.30;579.10;;;3.00;99.90;;;;;;4862837;29;20535;-83
2021/12/03 07:14:48;;;;;;;576.93;550.13;;;3.00;99.90;;;;;;4862992;29;20464;-82
2021/12/03 07:17:14;;;;;;;556.60;531.33;;;3.00;99.90;;;;;;4862954;29;20480;-82
2021/12/03 07:19:41;;;;;;;516.23;493.73;;;3.00;99.90;;;;;;4863099;29;20460;-82
2021/12/03 07:22:08;;;;;;;431.60;414.30;;;3.00;99.90;;;;;;4862240;29;20846;-82
2021/12/03 07:24:34;;;;;;;338.13;324.67;;;2.90;99.90;;;;;;4868688;29;20460;-84
2021/12/03 07:27:01;;;;;;;330.80;318.00;;;3.00;99.90;;;;;;4865648;29;20563;-82
2021/12/03 07:29:31;;;;;;;271.23;260.80;;;3.00;99.90;;;;;;4865247;29;20491;-83
2021/12/03 07:31:58;;;;;;;258.90;249.07;;;3.00;99.90;;;;;;4864423;29;20905;-83
2021/12/03 07:34:25;;;;;;;155.27;149.10;;;3.00;99.90;;;;;;4866397;29;20476;-82
2021/12/03 07:36:52;;;;;;;75.03;70.70;;;3.10;99.90;;;;;;4865898;29;20487;-83
2021/12/03 07:39:18;;;;;;;79.60;74.30;;;3.00;99.90;;;;;;4866775;29;20479;-82
2021/12/03 07:41:45;;;;;;;57.60;52.77;;;3.00;99.90;;;;;;4865561;29;20456;-83
2021/12/03 07:44:12;;;;;;;46.17;43.13;;;3.00;99.90;;;;;;4865718;29;20464;-82
2021/12/03 07:46:40;;;;;;;34.33;31.57;;;3.00;99.90;;;;;;4865566;29;20465;-83
2021/12/03 07:49:07;;;;;;;28.50;26.07;;;3.00;99.90;;;;;;4865209;29;20463;-83
2021/12/03 07:51:34;;;;;;;21.17;17.50;;;3.00;99.90;;;;;;4865797;29;20980;-82
2021/12/03 07:54:01;;;;;;;24.83;13.17;;;3.10;99.90;;;;;;4864697;29;20632;-82
2021/12/03 07:56:27;;;;;;;25.73;11.57;;;3.00;98.90;;;;;;4865772;29;20468;-83
2021/12/03 07:58:54;;;;;;;24.30;16.00;;;3.10;97.10;;;;;;4866166;29;20484;-82
2021/12/03 08:01:21;;;;;;;26.53;14.00;;;3.10;96.00;;;;;;4865630;29;20471;-83
2021/12/03 08:03:49;;;;;;;17.60;13.60;;;3.10;98.00;;;;;;4866463;29;20467;-81
2021/12/03 08:06:16;;;;;;;31.40;19.03;;;3.10;99.50;;;;;;4865213;29;20458;-82
2021/12/03 08:08:43;;;;;;;20.73;18.20;;;3.00;97.50;;;;;;4865633;29;20502;-82
2021/12/03 08:11:09;;;;;;;27.43;25.13;;;3.00;99.20;;;;;;4864283;29;20464;-82
2021/12/03 08:13:36;;;;;;;18.57;16.70;;;3.10;98.10;;;;;;4865541;29;20477;-82
2021/12/03 08:16:04;;;;;;;28.60;26.43;;;3.10;98.10;;;;;;4864245;29;20977;-82
2021/12/03 08:18:31;;;;;;;26.33;24.00;;;3.10;99.70;;;;;;4866178;29;20484;-83
2021/12/03 08:20:59;;;;;;;23.93;21.53;;;3.00;98.80;;;;;;4865323;29;20467;-84
2021/12/03 08:23:27;;;;;;;20.77;19.00;;;3.10;98.50;;;;;;4864257;29;20461;-83
2021/12/03 08:25:53;;;;;;;31.50;28.67;;;3.00;98.10;;;;;;4864612;29;20471;-82
2021/12/03 08:28:20;;;;;;;31.27;16.63;;;3.10;99.20;;;;;;4864699;29;21041;-82
2021/12/03 08:30:47;;;;;;;25.57;22.97;;;3.10;97.70;;;;;;4880835;29;20470;-82
2021/12/03 08:33:14;;;;;;;29.67;27.00;;;3.20;98.10;;;;;;4884081;29;20469;-83
2021/12/03 08:35:41;;;;;;;21.30;19.33;;;3.20;98.20;;;;;;4882851;29;20463;-82
2021/12/03 08:38:09;;;;;;;26.10;23.90;;;3.20;97.80;;;;;;4878824;29;20475;-82
2021/12/03 08:40:36;;;;;;;32.53;29.27;;;3.20;97.50;;;;;;4882910;29;20460;-82
2021/12/03 08:43:03;;;;;;;54.30;50.90;;;3.30;98.10;;;;;;4886516;29;20483;-83
2021/12/03 08:45:30;;;;;;;78.43;74.47;;;3.40;99.10;;;;;;4888300;29;20464;-82
2021/12/03 08:47:58;;;;;;;41.40;39.00;;;3.30;99.20;;;;;;4887650;29;20920;-82
2021/12/03 08:50:29;;;;;;;49.53;46.33;;;3.30;98.80;;;;;;4887870;29;20459;-83
2021/12/03 08:54:48;;;;;;;35.53;31.57;;;3.30;98.70;;;;;;4888856;29;20459;-83
2021/12/03 08:56:10;;;;;;;68.60;64.50;;;3.30;99.90;;;;;;4888073;29;20877;-83
2021/12/03 08:58:37;;;;;;;64.23;60.33;;;3.40;99.90;;;;;;4888060;29;20492;-83
2021/12/03 09:01:03;;;;;;;68.13;64.43;;;3.40;99.00;;;;;;4887093;29;20455;-82
2021/12/03 09:03:30;;;;;;;64.77;61.37;;;3.50;99.20;;;;;;4885752;29;20989;-83
2021/12/03 09:05:57;;;;;;;59.57;56.27;;;3.50;98.20;;;;;;4887018;29;20580;-83
2021/12/03 09:08:24;;;;;;;56.87;53.83;;;3.60;96.80;;;;;;4887681;29;20498;-83
2021/12/03 09:10:50;;;;;;;39.07;36.77;;;3.70;97.20;;;;;;4887609;29;20973;-83
2021/12/03 09:13:18;;;;;;;66.63;62.77;;;3.80;97.10;;;;;;4887750;29;20455;-83
2021/12/03 09:15:51;;;;;;;48.70;45.70;;;3.80;96.40;;;;;;4887042;29;20462;-84
2021/12/03 09:21:03;;;;;;;36.03;32.90;;;3.80;95.70;;;;;;4886472;29;20466;-83
2021/12/03 09:23:36;;;;;;;38.27;35.57;;;3.80;95.50;;;;;;4887571;29;20455;-83
2021/12/03 09:26:10;;;;;;;28.70;26.30;;;3.80;94.90;;;;;;4886242;29;20479;-84
2021/12/03 09:28:41;;;;;;;41.90;39.50;;;3.90;95.70;;;;;;4887890;29;20487;-83
2021/12/03 09:31:10;;;;;;;29.63;26.60;;;3.80;95.00;;;;;;4888090;29;20463;-83
2021/12/03 09:33:39;;;;;;;24.90;22.70;;;3.80;94.70;;;;;;4887696;29;20481;-83
2021/12/03 09:36:08;;;;;;;22.93;10.70;;;4.00;94.70;;;;;;4887239;29;20467;-82
2021/12/03 09:38:36;;;;;;;17.40;11.10;;;4.00;94.20;;;;;;4887252;29;20510;-83
2021/12/03 09:41:07;;;;;;;27.47;25.70;;;4.00;94.50;;;;;;4887667;29;20467;-83
2021/12/03 09:43:35;;;;;;;16.63;11.80;;;4.00;93.70;;;;;;4887210;29;20814;-84
2021/12/03 09:46:10;;;;;;;18.13;13.23;;;4.20;93.50;;;;;;4887835;29;20550;-83
2021/12/03 09:48:52;;;;;;;19.97;15.23;;;4.10;93.00;;;;;;4888147;29;20487;-83
2021/12/03 09:51:19;;;;;;;13.37;8.17;;;4.10;92.80;;;;;;4888203;29;20471;-83
2021/12/03 09:54:14;;;;;;;18.07;9.30;;;4.20;91.40;;;;;;4886697;29;20460;-83
2021/12/03 09:56:41;;;;;;;16.90;9.40;;;4.30;91.40;;;;;;4887540;29;20511;-83
2021/12/03 09:59:39;;;;;;;17.67;8.47;;;4.30;91.40;;;;;;4887008;29;20471;-84
2021/12/03 10:02:16;;;;;;;10.60;9.80;;;4.30;91.30;;;;;;4886770;29;20516;-83
2021/12/03 10:05:04;;;;;;;25.47;10.60;;;4.30;90.90;;;;;;4886797;29;20463;-84
2021/12/03 10:13:08;;;;;;;13.30;5.87;;;4.40;89.90;;;;;;4878316;29;20495;-83
2021/12/03 10:15:38;;;;;;;14.00;5.90;;;4.50;89.00;;;;;;4887007;29;20558;-83
2021/12/03 10:18:09;;;;;;;17.63;5.50;;;4.60;88.60;;;;;;4887156;29;20526;-83
2021/12/03 10:20:43;;;;;;;16.40;5.13;;;4.60;86.40;;;;;;4886411;29;20466;-83
2021/12/03 10:34:41;;;;;;;19.58;5.35;;;4.70;85.50;;;;;;4884382;29;20502;-83
2021/12/03 10:40:08;;;;;;;13.63;5.27;;;4.80;85.00;;;;;;4887566;29;20459;-82
2021/12/03 10:42:47;;;;;;;11.37;5.27;;;4.90;85.10;;;;;;4887975;29;20463;-83
2021/12/03 10:45:24;;;;;;;9.80;6.03;;;4.90;83.40;;;;;;4884477;29;20463;-83
2021/12/03 10:48:10;;;;;;;12.10;5.53;;;4.90;81.80;;;;;;4883119;29;20849;-82
2021/12/03 10:50:59;;;;;;;13.93;7.00;;;5.00;81.90;;;;;;4885387;29;20482;-83
2021/12/03 10:53:39;;;;;;;11.43;4.20;;;5.00;83.30;;;;;;4886745;29;20467;-83
2021/12/03 10:56:24;;;;;;;16.13;4.80;;;5.00;83.30;;;;;;4886254;29;20455;-83
2021/12/03 10:59:29;;;;;;;9.40;5.37;;;4.90;82.60;;;;;;4886114;29;20873;-83
2021/12/03 11:07:55;;;;;;;6.43;3.47;;;4.80;79.20;;;;;;4887055;29;20474;-83
2021/12/03 11:27:58;;;;;;;13.67;4.53;;;5.00;78.20;;;;;;4886736;29;20511;-84
2021/12/03 12:58:07;;;;;;;8.53;3.00;;;5.60;74.20;;;;;;4887275;29;20439;-85
2021/12/03 13:08:33;;;;;;;7.97;3.63;;;5.60;70.10;;;;;;4874108;29;20481;-84
2021/12/03 14:37:54;;;;;;;4.73;2.43;;;5.00;71.40;;;;;;4869867;29;20996;-84
2021/12/03 14:43:34;;;;;;;8.40;2.70;;;4.90;70.80;;;;;;4860123;29;20612;-83
2021/12/03 14:46:21;;;;;;;6.20;2.90;;;5.00;68.80;;;;;;4870870;29;20460;-84
2021/12/03 14:49:12;;;;;;;6.97;2.90;;;4.90;69.90;;;;;;4870964;29;20492;-84
2021/12/03 14:51:50;;;;;;;5.93;3.10;;;4.90;72.50;;;;;;4870252;29;20464;-83
2021/12/03 14:57:13;;;;;;;5.20;2.63;;;4.80;73.50;;;;;;4870043;29;20499;-83
2021/12/03 14:59:51;;;;;;;5.17;3.50;;;4.80;73.50;;;;;;4871348;29;20464;-84
2021/12/03 15:02:40;;;;;;;6.10;2.83;;;4.70;76.20;;;;;;4871047;29;20460;-83
2021/12/03 15:07:54;;;;;;;4.80;3.17;;;4.50;81.00;;;;;;4850567;29;20474;-83
2021/12/03 15:10:29;;;;;;;7.40;2.77;;;4.40;81.00;;;;;;4870463;29;20452;-85
2021/12/03 15:19:01;;;;;;;3.40;2.30;;;4.30;85.60;;;;;;4829742;29;20492;-85
2021/12/03 15:24:39;;;;;;;6.37;4.23;;;4.30;85.00;;;;;;4856674;29;20512;-82
2021/12/03 15:32:48;;;;;;;7.60;4.23;;;4.30;86.60;;;;;;4862934;29;20463;-83
2021/12/03 15:35:27;;;;;;;3.90;3.00;;;4.40;83.60;;;;;;4867467;29;20460;-84
2021/12/03 15:40:55;;;;;;;4.03;2.90;;;4.60;80.30;;;;;;4869417;29;20466;-84
2021/12/03 16:08:43;;;;;;;3.83;2.40;;;4.90;76.80;;;;;;4875343;29;20943;-83
2021/12/03 16:11:21;;;;;;;4.50;2.80;;;4.90;76.30;;;;;;4874965;29;20467;-83
2021/12/03 16:13:52;;;;;;;6.83;3.40;;;4.90;73.80;;;;;;4865906;29;20464;-83
2021/12/03 16:16:50;;;;;;;13.53;3.90;;;4.90;76.40;;;;;;4863611;29;20550;-83
2021/12/03 16:19:37;;;;;;;5.20;2.20;;;4.90;77.50;;;;;;4862831;29;20489;-84
2021/12/03 16:22:11;;;;;;;4.77;2.80;;;5.00;75.90;;;;;;4863558;29;20460;-84
2021/12/03 16:25:02;;;;;;;5.97;2.90;;;4.90;77.80;;;;;;4869262;29;20464;-83
2021/12/03 16:44:45;;;;;;;8.20;3.90;;;4.90;78.10;;;;;;4881950;29;20434;-83
2021/12/03 16:47:29;;;;;;;4.00;2.30;;;4.80;79.40;;;;;;4881554;29;20539;-83
2021/12/03 16:50:35;;;;;;;5.33;2.63;;;4.80;78.00;;;;;;4881982;29;20551;-84
2021/12/03 16:53:02;;;;;;;9.20;3.77;;;4.90;79.50;;;;;;4880594;29;20463;-83
2021/12/03 16:55:29;;;;;;;5.17;3.13;;;4.90;80.10;;;;;;4883699;29;20483;-82
2021/12/03 16:57:56;;;;;;;7.53;3.33;;;4.90;79.00;;;;;;4888150;29;20578;-82
2021/12/03 17:00:29;;;;;;;4.73;3.37;;;4.90;80.00;;;;;;4888244;29;20485;-83
2021/12/03 17:03:02;;;;;;;8.03;5.10;;;4.80;81.30;;;;;;4880473;29;20456;-83
2021/12/03 17:08:30;;;;;;;6.47;3.50;;;4.80;81.60;;;;;;4869057;29;20478;-83
2021/12/03 17:11:24;;;;;;;7.00;3.37;;;4.70;83.20;;;;;;4872282;29;20471;-83
2021/12/03 17:31:13;;;;;;;20.80;19.50;;;4.40;93.00;;;;;;4889584;29;20458;-83
2021/12/03 17:47:39;;;;;;;64.47;61.77;;;4.30;99.90;;;;;;4848937;29;20538;-81
2021/12/03 17:50:24;;;;;;;98.50;94.67;;;4.20;99.90;;;;;;4885356;29;20435;-82
2021/12/03 17:53:25;;;;;;;83.17;79.87;;;4.20;99.90;;;;;;4869127;29;21005;-82
2021/12/03 17:58:41;;;;;;;226.03;218.10;;;4.20;99.90;;;;;;4863242;29;20496;-82
2021/12/03 18:01:14;;;;;;;290.97;280.77;;;4.20;99.90;;;;;;4867397;29;21051;-83
2021/12/03 18:03:48;;;;;;;294.67;284.37;;;4.10;99.90;;;;;;4867689;29;20447;-82
2021/12/03 18:09:14;;;;;;;334.13;322.07;;;4.20;99.90;;;;;;4870476;29;20497;-83
2021/12/03 18:15:17;;;;;;;345.40;332.57;;;4.20;99.90;;;;;;4859169;29;20448;-82
2021/12/03 18:45:37;;;;;;;310.30;299.43;;;4.40;99.90;;;;;;4854382;29;20829;-82
2021/12/03 18:48:28;;;;;;;200.30;193.23;;;4.50;99.90;;;;;;4865873;29;20508;-83